Time;durP1;ratioP1;P1;durP2;ratioP2;P2;SDS_P1;SDS_P2;PMS_P1;PMS_P2;Temp;Humidity;BMP_temperature;BMP_pressure;BME280_temperature;BME280_humidity;BME280_pressure;Samples;Min_cycle;Max_cycle;Signal;HPM_P1;HPM_P2
2023/10/01 00:01:54;;;;;;;1.48;1.38;;;;;;;;;;5017156;28;20273;-64
2023/10/01 00:04:21;;;;;;;1.52;1.42;;;;;;;;;;5017850;28;20202;-64
2023/10/01 00:06:49;;;;;;;1.80;1.70;;;;;;;;;;5017329;28;20234;-64
2023/10/01 00:09:20;;;;;;;1.58;1.45;;;;;;;;;;5017108;28;20297;-64
2023/10/01 00:11:49;;;;;;;1.58;1.48;;;;;;;;;;5017332;28;20213;-64
2023/10/01 00:14:17;;;;;;;1.60;1.50;;;;;;;;;;5017332;28;20206;-64
2023/10/01 00:16:44;;;;;;;1.90;1.40;;;;;;;;;;5017503;28;20299;-64
2023/10/01 00:19:12;;;;;;;1.90;1.65;;;;;;;;;;5017300;28;20214;-64
2023/10/01 00:21:39;;;;;;;1.65;1.55;;;;;;;;;;5017280;28;20214;-64
2023/10/01 00:24:07;;;;;;;1.77;1.50;;;;;;;;;;5017842;28;20543;-64
2023/10/01 00:26:37;;;;;;;1.60;1.50;;;;;;;;;;5017932;28;20272;-64
2023/10/01 00:29:05;;;;;;;1.70;1.60;;;;;;;;;;5017625;28;20304;-64
2023/10/01 00:31:32;;;;;;;1.80;1.70;;;;;;;;;;5017742;28;20207;-64
2023/10/01 00:34:00;;;;;;;1.77;1.67;;;;;;;;;;5017488;28;20636;-64
2023/10/01 00:36:29;;;;;;;1.73;1.60;;;;;;;;;;5016893;28;20241;-64
2023/10/01 00:38:57;;;;;;;2.00;1.45;;;;;;;;;;5017605;28;20206;-64
2023/10/01 00:41:25;;;;;;;2.75;1.58;;;;;;;;;;5017452;28;20210;-64
2023/10/01 00:43:55;;;;;;;1.48;1.38;;;;;;;;;;5017532;28;20206;-64
2023/10/01 00:46:23;;;;;;;1.77;1.60;;;;;;;;;;5017505;28;20253;-64
2023/10/01 00:48:52;;;;;;;2.65;1.60;;;;;;;;;;5017690;28;20206;-64
2023/10/01 00:51:20;;;;;;;1.95;1.60;;;;;;;;;;5017893;28;20289;-64
2023/10/01 00:53:49;;;;;;;1.67;1.50;;;;;;;;;;5017373;28;20237;-64
2023/10/01 00:56:17;;;;;;;1.70;1.55;;;;;;;;;;5017421;28;20237;-64
2023/10/01 00:58:44;;;;;;;1.73;1.63;;;;;;;;;;5017903;28;20207;-64
2023/10/01 01:01:13;;;;;;;1.70;1.52;;;;;;;;;;5017190;28;20206;-64
2023/10/01 01:03:42;;;;;;;1.83;1.60;;;;;;;;;;5017416;28;20351;-65
2023/10/01 01:06:17;;;;;;;1.77;1.50;;;;;;;;;;5017567;28;20203;-65
2023/10/01 01:08:50;;;;;;;1.75;1.45;;;;;;;;;;5017367;28;20206;-64
2023/10/01 01:11:17;;;;;;;1.60;1.50;;;;;;;;;;5017310;28;20206;-64
2023/10/01 01:13:47;;;;;;;2.10;1.83;;;;;;;;;;5017524;28;20206;-64
2023/10/01 01:16:19;;;;;;;1.85;1.67;;;;;;;;;;5017435;28;20320;-64
2023/10/01 01:18:47;;;;;;;1.60;1.50;;;;;;;;;;5017354;28;20217;-64
2023/10/01 01:21:14;;;;;;;1.70;1.60;;;;;;;;;;5017582;28;20569;-64
2023/10/01 01:23:45;;;;;;;1.58;1.48;;;;;;;;;;5020460;28;20277;-64
2023/10/01 01:26:13;;;;;;;1.65;1.55;;;;;;;;;;5020894;28;20229;-64
2023/10/01 01:28:41;;;;;;;2.42;1.50;;;;;;;;;;5020539;28;20210;-64
2023/10/01 01:31:10;;;;;;;1.48;1.38;;;;;;;;;;5020618;28;20302;-64
2023/10/01 01:33:52;;;;;;;1.65;1.40;;;;;;;;;;5020672;28;20651;-64
2023/10/01 01:36:20;;;;;;;1.70;1.60;;;;;;;;;;5020139;28;20292;-64
2023/10/01 01:39:09;;;;;;;1.70;1.60;;;;;;;;;;5012317;28;20217;-64
2023/10/01 01:41:42;;;;;;;1.63;1.52;;;;;;;;;;5020582;28;20297;-64
2023/10/01 01:44:10;;;;;;;1.67;1.58;;;;;;;;;;5020196;28;20206;-64
2023/10/01 01:46:47;;;;;;;1.55;1.45;;;;;;;;;;5020599;28;20301;-64
2023/10/01 01:49:15;;;;;;;1.50;1.40;;;;;;;;;;5020565;28;20249;-64
2023/10/01 01:51:56;;;;;;;1.52;1.42;;;;;;;;;;5020448;28;20206;-64
2023/10/01 01:54:27;;;;;;;1.63;1.40;;;;;;;;;;5020114;28;20205;-64
2023/10/01 01:56:55;;;;;;;1.58;1.48;;;;;;;;;;5020422;28;20230;-64
2023/10/01 01:59:27;;;;;;;1.75;1.60;;;;;;;;;;5020406;28;20206;-64
2023/10/01 02:01:55;;;;;;;1.70;1.60;;;;;;;;;;5020288;28;20313;-64
2023/10/01 02:04:23;;;;;;;1.58;1.48;;;;;;;;;;5019538;28;20245;-64
2023/10/01 02:06:52;;;;;;;1.80;1.70;;;;;;;;;;5019393;28;20203;-64
2023/10/01 02:09:24;;;;;;;1.52;1.42;;;;;;;;;;5019648;28;20210;-64
2023/10/01 02:11:53;;;;;;;1.67;1.58;;;;;;;;;;5012567;28;20206;-64
2023/10/01 02:14:34;;;;;;;2.20;1.90;;;;;;;;;;5020131;28;20488;-64
2023/10/01 02:17:13;;;;;;;2.30;2.00;;;;;;;;;;5019897;28;20237;-64
2023/10/01 02:19:46;;;;;;;1.80;1.60;;;;;;;;;;5019842;28;20214;-64
2023/10/01 02:22:14;;;;;;;1.60;1.50;;;;;;;;;;5019656;28;20206;-64
2023/10/01 02:24:54;;;;;;;1.60;1.50;;;;;;;;;;5019471;28;20249;-64
2023/10/01 02:27:26;;;;;;;1.90;1.73;;;;;;;;;;5019736;28;20238;-64
2023/10/01 02:30:16;;;;;;;1.70;1.60;;;;;;;;;;5019599;28;20210;-64
2023/10/01 02:35:40;;;;;;;1.70;1.60;;;;;;;;;;5018178;28;20246;-64
2023/10/01 02:38:36;;;;;;;2.08;1.70;;;;;;;;;;5019434;28;20210;-64
2023/10/01 02:40:57;;;;;;;1.73;1.63;;;;;;;;;;5019863;28;20575;-64
2023/10/01 02:43:33;;;;;;;1.70;1.60;;;;;;;;;;5019381;28;20304;-64
2023/10/01 02:45:59;;;;;;;2.83;1.70;;;;;;;;;;5018854;28;20296;-64
2023/10/01 02:48:28;;;;;;;2.28;1.60;;;;;;;;;;5020021;28;20202;-64
2023/10/01 02:50:54;;;;;;;1.42;1.33;;;;;;;;;;5019421;28;20272;-64
2023/10/01 02:53:22;;;;;;;1.85;1.75;;;;;;;;;;5019511;28;20515;-64
2023/10/01 02:55:51;;;;;;;1.60;1.50;;;;;;;;;;5018565;28;20223;-64
2023/10/01 02:58:20;;;;;;;1.70;1.55;;;;;;;;;;5018795;28;20202;-64
2023/10/01 03:00:53;;;;;;;1.52;1.42;;;;;;;;;;5019012;28;20309;-64
2023/10/01 03:03:32;;;;;;;1.73;1.60;;;;;;;;;;5019499;28;20382;-64
2023/10/01 03:06:08;;;;;;;1.80;1.70;;;;;;;;;;5013118;28;20455;-64
2023/10/01 03:08:59;;;;;;;1.90;1.70;;;;;;;;;;5018557;28;20212;-64
2023/10/01 03:11:34;;;;;;;1.70;1.60;;;;;;;;;;5018998;28;20214;-64
2023/10/01 03:14:10;;;;;;;1.60;1.50;;;;;;;;;;5018560;28;20214;-65
2023/10/01 03:16:43;;;;;;;2.15;1.95;;;;;;;;;;5018851;28;20650;-65
2023/10/01 03:19:25;;;;;;;1.70;1.60;;;;;;;;;;5018662;28;20240;-65
2023/10/01 03:24:43;;;;;;;1.67;1.58;;;;;;;;;;5018649;28;20293;-65
2023/10/01 03:27:27;;;;;;;1.67;1.48;;;;;;;;;;5018603;28;20202;-65
2023/10/01 03:30:18;;;;;;;1.77;1.67;;;;;;;;;;5018809;28;20206;-65
2023/10/01 03:32:47;;;;;;;2.28;1.70;;;;;;;;;;5018235;28;20600;-65
2023/10/01 03:35:15;;;;;;;2.08;1.85;;;;;;;;;;5018344;28;20207;-65
2023/10/01 03:38:08;;;;;;;1.58;1.48;;;;;;;;;;5017836;28;20206;-65
2023/10/01 03:40:36;;;;;;;2.42;1.90;;;;;;;;;;5018717;28;20202;-65
2023/10/01 03:43:04;;;;;;;1.85;1.60;;;;;;;;;;5018132;28;20206;-65
2023/10/01 03:45:41;;;;;;;2.10;1.75;;;;;;;;;;5017563;28;20663;-65
2023/10/01 03:48:19;;;;;;;1.77;1.60;;;;;;;;;;5018221;28;20271;-65
2023/10/01 03:50:47;;;;;;;2.08;1.88;;;;;;;;;;5018626;28;20285;-65
2023/10/01 03:53:18;;;;;;;1.75;1.65;;;;;;;;;;5018277;28;20288;-64
2023/10/01 03:55:53;;;;;;;1.80;1.60;;;;;;;;;;5018011;28;20324;-64
2023/10/01 03:58:26;;;;;;;1.90;1.77;;;;;;;;;;5018173;28;20831;-65
2023/10/01 04:01:09;;;;;;;1.70;1.60;;;;;;;;;;5018047;28;20206;-65
2023/10/01 04:03:39;;;;;;;2.15;1.58;;;;;;;;;;5017602;28;20218;-65
2023/10/01 04:06:07;;;;;;;1.77;1.60;;;;;;;;;;5017998;28;20654;-65
2023/10/01 04:08:39;;;;;;;1.98;1.77;;;;;;;;;;5018138;28;20316;-65
2023/10/01 04:11:11;;;;;;;1.70;1.60;;;;;;;;;;5018239;28;20213;-65
2023/10/01 04:13:40;;;;;;;1.85;1.63;;;;;;;;;;5017497;28;20257;-65
2023/10/01 04:16:14;;;;;;;2.13;1.73;;;;;;;;;;5018041;28;20255;-64
2023/10/01 04:18:43;;;;;;;1.67;1.55;;;;;;;;;;5017283;28;20202;-64
2023/10/01 04:21:25;;;;;;;1.70;1.60;;;;;;;;;;5017927;28;20255;-64
2023/10/01 04:23:51;;;;;;;2.20;2.00;;;;;;;;;;5017805;28;20202;-64
2023/10/01 04:26:19;;;;;;;1.92;1.77;;;;;;;;;;5018055;28;20616;-64
2023/10/01 04:28:47;;;;;;;1.70;1.60;;;;;;;;;;5017683;28;20314;-64
2023/10/01 04:31:18;;;;;;;1.60;1.50;;;;;;;;;;5017551;28;20237;-64
2023/10/01 04:33:49;;;;;;;2.13;2.03;;;;;;;;;;5017644;28;20264;-64
2023/10/01 04:36:19;;;;;;;2.00;1.80;;;;;;;;;;5017053;28;20612;-64
2023/10/01 04:38:48;;;;;;;2.22;1.90;;;;;;;;;;5017883;28;20214;-64
2023/10/01 04:41:16;;;;;;;2.13;1.60;;;;;;;;;;5017612;28;20289;-64
2023/10/01 04:43:55;;;;;;;2.00;1.80;;;;;;;;;;5017179;28;20220;-64
2023/10/01 04:46:25;;;;;;;1.60;1.50;;;;;;;;;;5017667;28;20202;-64
2023/10/01 04:48:55;;;;;;;1.80;1.70;;;;;;;;;;5017871;28;20206;-64
2023/10/01 04:51:24;;;;;;;1.83;1.65;;;;;;;;;;5017704;28;20249;-64
2023/10/01 04:53:52;;;;;;;1.80;1.70;;;;;;;;;;5017244;28;20226;-64
2023/10/01 04:56:22;;;;;;;2.00;1.80;;;;;;;;;;5017789;28;20226;-64
2023/10/01 04:58:52;;;;;;;2.00;1.80;;;;;;;;;;5013772;28;20312;-64
2023/10/01 05:01:23;;;;;;;1.70;1.60;;;;;;;;;;5021404;28;20561;-64
2023/10/01 05:03:52;;;;;;;1.70;1.60;;;;;;;;;;5013586;28;20332;-64
2023/10/01 05:06:22;;;;;;;1.98;1.77;;;;;;;;;;5020894;28;20198;-64
2023/10/01 05:08:53;;;;;;;1.88;1.77;;;;;;;;;;5021091;28;20206;-64
2023/10/01 05:11:22;;;;;;;1.85;1.73;;;;;;;;;;5021287;28;20206;-64
2023/10/01 05:13:51;;;;;;;1.95;1.75;;;;;;;;;;5021240;28;20576;-64
2023/10/01 05:16:26;;;;;;;1.92;1.70;;;;;;;;;;5020771;28;20320;-64
2023/10/01 05:19:09;;;;;;;1.98;1.77;;;;;;;;;;5013755;28;20240;-64
2023/10/01 05:21:41;;;;;;;1.67;1.58;;;;;;;;;;5020854;28;20586;-64
2023/10/01 05:24:09;;;;;;;1.77;1.67;;;;;;;;;;5021121;28;20214;-64
2023/10/01 05:26:38;;;;;;;1.90;1.80;;;;;;;;;;5020973;28;20202;-64
2023/10/01 05:29:07;;;;;;;1.80;1.70;;;;;;;;;;5021058;28;20206;-64
2023/10/01 05:31:39;;;;;;;1.60;1.50;;;;;;;;;;5021041;28;20206;-64
2023/10/01 05:34:06;;;;;;;1.83;1.70;;;;;;;;;;5020454;28;20328;-64
2023/10/01 05:36:37;;;;;;;1.73;1.63;;;;;;;;;;5020568;28;20265;-64
2023/10/01 05:39:11;;;;;;;1.60;1.50;;;;;;;;;;5020880;28;20257;-64
2023/10/01 05:41:44;;;;;;;2.20;1.60;;;;;;;;;;5020220;28;20206;-64
2023/10/01 05:44:12;;;;;;;1.50;1.40;;;;;;;;;;5020271;28;20241;-64
2023/10/01 05:46:40;;;;;;;2.00;1.70;;;;;;;;;;5020449;28;20289;-64
2023/10/01 05:49:09;;;;;;;2.05;1.70;;;;;;;;;;5021279;28;20257;-64
2023/10/01 05:51:44;;;;;;;1.60;1.50;;;;;;;;;;5020372;28;20213;-64
2023/10/01 05:54:18;;;;;;;1.95;1.70;;;;;;;;;;5020022;28;20583;-64
2023/10/01 05:56:49;;;;;;;1.60;1.50;;;;;;;;;;5020241;28;20329;-64
2023/10/01 05:59:20;;;;;;;1.65;1.55;;;;;;;;;;5020728;28;20217;-64
2023/10/01 06:01:48;;;;;;;2.03;1.80;;;;;;;;;;5020016;28;20210;-64
2023/10/01 06:04:18;;;;;;;2.20;1.80;;;;;;;;;;5020346;28;20206;-64
2023/10/01 06:06:46;;;;;;;1.80;1.70;;;;;;;;;;5019676;28;20194;-64
2023/10/01 06:09:15;;;;;;;2.03;1.83;;;;;;;;;;5018384;28;20308;-64
2023/10/01 06:11:48;;;;;;;2.08;1.67;;;;;;;;;;5019497;28;20214;-64
2023/10/01 06:17:10;;;;;;;1.70;1.60;;;;;;;;;;5156896;27;20621;-65
2023/10/01 06:19:40;;;;;;;1.90;1.80;;;;;;;;;;5156021;27;20325;-66
2023/10/01 06:22:22;;;;;;;2.38;1.70;;;;;;;;;;5156201;27;20513;-66
2023/10/01 06:24:49;;;;;;;1.65;1.55;;;;;;;;;;5156691;27;20216;-66
2023/10/01 06:27:19;;;;;;;1.77;1.60;;;;;;;;;;5156277;27;20202;-66
2023/10/01 06:29:50;;;;;;;1.70;1.60;;;;;;;;;;5156704;27;20202;-66
2023/10/01 06:32:23;;;;;;;1.85;1.60;;;;;;;;;;5156360;27;20201;-66
2023/10/01 06:34:52;;;;;;;1.85;1.70;;;;;;;;;;5156129;27;20233;-66
2023/10/01 06:37:20;;;;;;;1.70;1.60;;;;;;;;;;5156629;27;20533;-66
2023/10/01 06:39:47;;;;;;;2.22;1.60;;;;;;;;;;5156217;27;20201;-66
2023/10/01 06:42:23;;;;;;;2.50;1.65;;;;;;;;;;5155894;27;20341;-66
2023/10/01 06:44:54;;;;;;;2.00;1.80;;;;;;;;;;5155678;27;20281;-66
2023/10/01 06:47:23;;;;;;;2.08;1.88;;;;;;;;;;5155641;27;20209;-66
2023/10/01 06:50:12;;;;;;;2.42;2.00;;;;;;;;;;5155398;27;20198;-66
2023/10/01 06:52:41;;;;;;;1.80;1.55;;;;;;;;;;5155361;27;20298;-65
2023/10/01 06:55:25;;;;;;;2.33;1.90;;;;;;;;;;5155429;27;20236;-65
2023/10/01 06:57:53;;;;;;;1.90;1.60;;;;;;;;;;5155567;27;20487;-65
2023/10/01 07:00:23;;;;;;;2.22;1.80;;;;;;;;;;5155422;27;20209;-65
2023/10/01 07:02:51;;;;;;;1.80;1.70;;;;;;;;;;5155293;27;20231;-65
2023/10/01 07:05:21;;;;;;;1.67;1.58;;;;;;;;;;5155703;27;20240;-65
2023/10/01 07:07:49;;;;;;;1.65;1.52;;;;;;;;;;5155405;27;20205;-65
2023/10/01 07:10:19;;;;;;;1.60;1.50;;;;;;;;;;5155412;27;20209;-65
2023/10/01 07:12:58;;;;;;;1.85;1.70;;;;;;;;;;5154710;27;20205;-65
2023/10/01 07:15:26;;;;;;;1.85;1.75;;;;;;;;;;5154924;27;20565;-65
2023/10/01 07:17:57;;;;;;;2.80;1.75;;;;;;;;;;5154898;27;20202;-65
2023/10/01 07:20:26;;;;;;;1.75;1.65;;;;;;;;;;5155126;27;20292;-65
2023/10/01 07:22:54;;;;;;;2.00;1.52;;;;;;;;;;5154958;27;20297;-65
2023/10/01 07:25:37;;;;;;;2.80;1.77;;;;;;;;;;5154677;27;20198;-65
2023/10/01 07:28:06;;;;;;;3.10;2.00;;;;;;;;;;5143626;27;20229;-65
2023/10/01 07:30:46;;;;;;;4.47;1.92;;;;;;;;;;5140658;27;20213;-65
2023/10/01 07:33:17;;;;;;;2.38;2.17;;;;;;;;;;5141354;27;20251;-65
2023/10/01 07:35:45;;;;;;;1.70;1.60;;;;;;;;;;5141030;27;20226;-65
2023/10/01 07:38:14;;;;;;;1.98;1.77;;;;;;;;;;5140512;27;20210;-65
2023/10/01 07:40:58;;;;;;;1.90;1.60;;;;;;;;;;5140682;27;20399;-65
2023/10/01 07:43:26;;;;;;;1.75;1.63;;;;;;;;;;5140803;27;20198;-65
2023/10/01 07:45:59;;;;;;;1.80;1.70;;;;;;;;;;5140267;27;20263;-66
2023/10/01 07:48:28;;;;;;;1.50;1.40;;;;;;;;;;5140179;27;20285;-65
2023/10/01 07:50:56;;;;;;;2.15;1.95;;;;;;;;;;5140835;27;20648;-65
2023/10/01 07:53:32;;;;;;;1.55;1.40;;;;;;;;;;5140462;27;20301;-65
2023/10/01 07:56:01;;;;;;;1.80;1.70;;;;;;;;;;5140271;27;20325;-65
2023/10/01 08:03:56;;;;;;;2.17;1.85;;;;;;;;;;5139872;27;20186;-65
2023/10/01 08:06:29;;;;;;;1.70;1.60;;;;;;;;;;5140056;27;20206;-65
2023/10/01 08:08:58;;;;;;;2.80;1.73;;;;;;;;;;5140272;27;20209;-65
2023/10/01 08:14:11;;;;;;;2.17;1.83;;;;;;;;;;5139440;27;20189;-65
2023/10/01 08:16:48;;;;;;;1.73;1.63;;;;;;;;;;5138980;27;20234;-65
2023/10/01 08:19:20;;;;;;;1.70;1.60;;;;;;;;;;5140098;27;20202;-66
2023/10/01 08:21:50;;;;;;;2.13;1.83;;;;;;;;;;5139647;27;20577;-65
2023/10/01 08:24:18;;;;;;;2.58;1.67;;;;;;;;;;5139899;27;20203;-64
2023/10/01 08:26:50;;;;;;;2.33;1.75;;;;;;;;;;5140277;27;20220;-65
2023/10/01 08:29:17;;;;;;;2.90;2.00;;;;;;;;;;5139359;27;20305;-66
2023/10/01 08:34:28;;;;;;;2.40;1.65;;;;;;;;;;5139602;27;20190;-66
2023/10/01 08:36:55;;;;;;;2.35;1.52;;;;;;;;;;5139618;27;20222;-66
2023/10/01 08:39:35;;;;;;;2.30;1.55;;;;;;;;;;5138308;27;20571;-66
2023/10/01 08:42:08;;;;;;;1.88;1.63;;;;;;;;;;5139232;27;20202;-65
2023/10/01 08:44:44;;;;;;;1.73;1.63;;;;;;;;;;5139880;27;20592;-65
2023/10/01 08:47:27;;;;;;;1.70;1.60;;;;;;;;;;5139304;27;20198;-66
2023/10/01 08:50:17;;;;;;;2.03;1.80;;;;;;;;;;5139711;27;20229;-65
2023/10/01 08:52:55;;;;;;;1.80;1.70;;;;;;;;;;5139106;27;20209;-65
2023/10/01 08:55:27;;;;;;;3.10;2.10;;;;;;;;;;5138229;27;20282;-65
2023/10/01 08:57:55;;;;;;;2.03;1.83;;;;;;;;;;5139252;27;20293;-65
2023/10/01 09:00:24;;;;;;;2.40;2.03;;;;;;;;;;5138483;27;20210;-65
2023/10/01 09:02:52;;;;;;;2.08;1.83;;;;;;;;;;5139038;27;20198;-65
2023/10/01 09:05:25;;;;;;;3.00;2.00;;;;;;;;;;5139051;27;20302;-65
2023/10/01 09:08:15;;;;;;;2.58;1.98;;;;;;;;;;5138934;27;20305;-65
2023/10/01 09:10:52;;;;;;;2.47;2.28;;;;;;;;;;5137925;27;20198;-65
2023/10/01 09:13:22;;;;;;;2.58;2.20;;;;;;;;;;5138664;27;20225;-65
2023/10/01 09:15:55;;;;;;;4.00;2.55;;;;;;;;;;5137794;27;20242;-65
2023/10/01 09:18:24;;;;;;;3.15;2.30;;;;;;;;;;5138391;27;20225;-65
2023/10/01 09:21:08;;;;;;;2.83;2.17;;;;;;;;;;5137883;27;20202;-65
2023/10/01 09:23:54;;;;;;;2.58;2.28;;;;;;;;;;5138109;27;20214;-65
2023/10/01 09:26:37;;;;;;;2.30;2.00;;;;;;;;;;5137982;27;20211;-65
2023/10/01 09:29:13;;;;;;;2.45;2.13;;;;;;;;;;5137972;27;20202;-65
2023/10/01 09:31:54;;;;;;;2.83;2.20;;;;;;;;;;5138034;27;20201;-65
2023/10/01 09:34:33;;;;;;;2.83;2.50;;;;;;;;;;5138333;27;20632;-65
2023/10/01 09:37:07;;;;;;;3.45;2.80;;;;;;;;;;5138134;27;20222;-65
2023/10/01 09:39:41;;;;;;;3.78;2.30;;;;;;;;;;5137680;27;20206;-65
2023/10/01 09:42:24;;;;;;;3.88;2.78;;;;;;;;;;5133008;27;20213;-65
2023/10/01 09:44:53;;;;;;;3.78;2.67;;;;;;;;;;5158390;27;20202;-65
2023/10/01 09:47:24;;;;;;;3.78;2.50;;;;;;;;;;5158502;27;20261;-65
2023/10/01 09:49:52;;;;;;;3.90;3.10;;;;;;;;;;5158140;27;20282;-65
2023/10/01 09:52:30;;;;;;;3.13;2.78;;;;;;;;;;5158909;27;20202;-65
2023/10/01 09:55:03;;;;;;;4.35;2.75;;;;;;;;;;5158585;27;20491;-65
2023/10/01 09:57:34;;;;;;;3.80;2.60;;;;;;;;;;5157754;27;20225;-65
2023/10/01 10:00:14;;;;;;;3.10;2.80;;;;;;;;;;5158053;27;20237;-65
2023/10/01 10:02:51;;;;;;;3.80;2.90;;;;;;;;;;5158085;27;20201;-65
2023/10/01 10:05:24;;;;;;;3.63;2.83;;;;;;;;;;5158154;27;20212;-65
2023/10/01 10:07:54;;;;;;;3.58;3.00;;;;;;;;;;5158416;27;20198;-65
2023/10/01 10:10:25;;;;;;;3.78;3.10;;;;;;;;;;5157486;27;20688;-65
2023/10/01 10:12:56;;;;;;;4.35;3.33;;;;;;;;;;5157801;27;20201;-65
2023/10/01 10:15:46;;;;;;;5.10;3.30;;;;;;;;;;5157871;27;20239;-65
2023/10/01 10:18:18;;;;;;;4.50;3.20;;;;;;;;;;5146704;27;20495;-65
2023/10/01 10:21:06;;;;;;;4.72;3.42;;;;;;;;;;5157978;27;20213;-65
2023/10/01 10:23:48;;;;;;;4.50;3.33;;;;;;;;;;5151540;27;20292;-65
2023/10/01 10:26:43;;;;;;;4.95;3.22;;;;;;;;;;5158424;27;20716;-65
2023/10/01 10:29:12;;;;;;;5.85;3.40;;;;;;;;;;5158102;27;20255;-66
2023/10/01 10:31:44;;;;;;;6.63;4.05;;;;;;;;;;5158107;27;20213;-66
2023/10/01 10:34:24;;;;;;;4.80;3.33;;;;;;;;;;5158112;27;20213;-65
2023/10/01 10:36:52;;;;;;;4.38;3.40;;;;;;;;;;5156999;27;20221;-65
2023/10/01 10:39:40;;;;;;;4.45;3.50;;;;;;;;;;5157630;27;20209;-65
2023/10/01 10:42:28;;;;;;;5.80;3.92;;;;;;;;;;5157783;27;20213;-65
2023/10/01 10:45:21;;;;;;;5.10;3.20;;;;;;;;;;5158175;27;20219;-65
2023/10/01 10:47:58;;;;;;;6.07;3.22;;;;;;;;;;5158046;27;20261;-65
2023/10/01 10:50:44;;;;;;;4.07;3.35;;;;;;;;;;5157861;27;20581;-65
2023/10/01 10:53:19;;;;;;;5.50;3.50;;;;;;;;;;5157307;27;20201;-65
2023/10/01 10:55:57;;;;;;;5.07;3.60;;;;;;;;;;5157193;27;20477;-65
2023/10/01 10:58:28;;;;;;;5.95;3.65;;;;;;;;;;5157964;27;20212;-65
2023/10/01 11:00:56;;;;;;;4.68;3.50;;;;;;;;;;5157906;27;20266;-65
2023/10/01 11:03:42;;;;;;;4.85;3.53;;;;;;;;;;5160655;27;20212;-65
2023/10/01 11:06:16;;;;;;;4.28;3.40;;;;;;;;;;5161435;27;20197;-65
2023/10/01 11:08:50;;;;;;;4.15;3.58;;;;;;;;;;5161693;27;20201;-65
2023/10/01 11:11:18;;;;;;;4.60;3.38;;;;;;;;;;5161410;27;20279;-65
2023/10/01 11:13:46;;;;;;;5.95;4.00;;;;;;;;;;5161554;27;20233;-66
2023/10/01 11:16:17;;;;;;;5.25;3.40;;;;;;;;;;5161716;27;20237;-65
2023/10/01 11:18:45;;;;;;;5.78;3.58;;;;;;;;;;5161817;27;20648;-65
2023/10/01 11:21:20;;;;;;;4.32;3.30;;;;;;;;;;5161176;27;20202;-65
2023/10/01 11:23:53;;;;;;;4.82;3.60;;;;;;;;;;5161353;27;20208;-66
2023/10/01 11:26:30;;;;;;;4.45;3.47;;;;;;;;;;5160611;27;20229;-65
2023/10/01 11:29:00;;;;;;;4.07;3.30;;;;;;;;;;5160920;27;20229;-65
2023/10/01 11:31:31;;;;;;;5.03;3.53;;;;;;;;;;5160288;27;20254;-65
2023/10/01 11:34:03;;;;;;;5.05;3.35;;;;;;;;;;5160506;27;20201;-65
2023/10/01 11:36:36;;;;;;;4.20;3.28;;;;;;;;;;5161269;27;20202;-65
2023/10/01 11:39:04;;;;;;;4.20;3.22;;;;;;;;;;5160076;27;20212;-66
2023/10/01 11:41:41;;;;;;;4.00;3.28;;;;;;;;;;5160427;27;20202;-65
2023/10/01 11:44:25;;;;;;;4.85;3.40;;;;;;;;;;5160751;27;20195;-65
2023/10/01 11:46:58;;;;;;;4.85;3.38;;;;;;;;;;5160082;27;20202;-65
2023/10/01 11:49:32;;;;;;;5.43;3.60;;;;;;;;;;5160895;27;20202;-65
2023/10/01 11:52:05;;;;;;;5.85;3.47;;;;;;;;;;5159465;27;20214;-65
2023/10/01 11:54:43;;;;;;;4.57;3.75;;;;;;;;;;5159920;27;20251;-65
2023/10/01 11:57:22;;;;;;;4.35;3.38;;;;;;;;;;5160075;27;20256;-65
2023/10/01 11:59:54;;;;;;;4.20;3.20;;;;;;;;;;5160091;27;20595;-65
2023/10/01 12:02:25;;;;;;;4.15;3.10;;;;;;;;;;5159364;27;20292;-65
2023/10/01 12:04:58;;;;;;;4.88;3.45;;;;;;;;;;5159758;27;20490;-65
2023/10/01 12:07:31;;;;;;;5.55;3.50;;;;;;;;;;5159419;27;20296;-65
2023/10/01 12:09:59;;;;;;;4.25;3.17;;;;;;;;;;5159725;27;20230;-65
2023/10/01 12:12:28;;;;;;;5.15;3.20;;;;;;;;;;5159932;27;20201;-65
2023/10/01 12:14:57;;;;;;;4.50;3.55;;;;;;;;;;5159972;27;20711;-65
2023/10/01 12:17:26;;;;;;;4.50;3.67;;;;;;;;;;5160257;27;20224;-65
2023/10/01 12:19:53;;;;;;;4.68;3.60;;;;;;;;;;5159792;27;20687;-65
2023/10/01 12:22:23;;;;;;;5.00;3.55;;;;;;;;;;5158888;27;20194;-65
2023/10/01 12:24:56;;;;;;;4.80;3.13;;;;;;;;;;5159102;27;20529;-65
2023/10/01 12:27:41;;;;;;;4.30;3.50;;;;;;;;;;5159664;27;20207;-65
2023/10/01 12:30:30;;;;;;;3.40;2.85;;;;;;;;;;5159775;27;20193;-65
2023/10/01 12:33:00;;;;;;;4.07;3.45;;;;;;;;;;5159567;27;20270;-65
2023/10/01 12:35:30;;;;;;;5.85;3.50;;;;;;;;;;5159946;27;20201;-65
2023/10/01 12:38:05;;;;;;;4.57;3.55;;;;;;;;;;5158968;27;20217;-65
2023/10/01 12:40:35;;;;;;;4.80;3.35;;;;;;;;;;5159460;27;20197;-65
2023/10/01 12:43:03;;;;;;;4.32;3.30;;;;;;;;;;5158838;27;20208;-65
2023/10/01 12:45:33;;;;;;;4.18;3.25;;;;;;;;;;5158641;27;20765;-65
2023/10/01 12:48:08;;;;;;;5.20;3.75;;;;;;;;;;5158367;27;20250;-65
2023/10/01 12:50:35;;;;;;;4.35;3.47;;;;;;;;;;5159699;27;20208;-65
2023/10/01 12:53:19;;;;;;;4.55;3.58;;;;;;;;;;5159599;27;20202;-65
2023/10/01 12:55:52;;;;;;;4.95;3.30;;;;;;;;;;5159146;27;20502;-65
2023/10/01 12:58:35;;;;;;;3.60;2.97;;;;;;;;;;5158705;27;20713;-65
2023/10/01 13:01:04;;;;;;;4.40;3.20;;;;;;;;;;5159268;27;20203;-65
2023/10/01 13:03:31;;;;;;;3.65;3.05;;;;;;;;;;5158270;27;20233;-65
2023/10/01 13:06:05;;;;;;;4.45;3.42;;;;;;;;;;5159159;27;20206;-65
2023/10/01 13:08:32;;;;;;;4.22;3.10;;;;;;;;;;5158098;27;20205;-65
2023/10/01 13:10:59;;;;;;;4.45;3.30;;;;;;;;;;5159069;27;20201;-65
2023/10/01 13:13:36;;;;;;;5.07;3.40;;;;;;;;;;5158337;27;20281;-65
2023/10/01 13:16:16;;;;;;;5.13;3.53;;;;;;;;;;5158071;27;20221;-65
2023/10/01 13:18:44;;;;;;;4.47;3.53;;;;;;;;;;5158671;27;20313;-66
2023/10/01 13:21:12;;;;;;;4.53;3.60;;;;;;;;;;5159350;27;20198;-65
2023/10/01 13:23:43;;;;;;;4.18;3.60;;;;;;;;;;5158180;27;20209;-65
2023/10/01 13:26:14;;;;;;;4.70;3.65;;;;;;;;;;5158098;27;20201;-65
2023/10/01 13:28:46;;;;;;;4.63;3.85;;;;;;;;;;5157976;27;20208;-65
2023/10/01 13:34:09;;;;;;;4.45;3.50;;;;;;;;;;5157751;27;20196;-65
2023/10/01 13:36:50;;;;;;;5.00;3.67;;;;;;;;;;5158524;27;20225;-65
2023/10/01 13:39:25;;;;;;;5.00;3.38;;;;;;;;;;5157707;27;20311;-65
2023/10/01 14:09:48;;;;;;;4.55;3.40;;;;;;;;;;5096465;27;20189;-65
2023/10/01 14:12:41;;;;;;;4.82;3.67;;;;;;;;;;5157897;27;20201;-65
2023/10/01 14:15:05;;;;;;;5.80;3.50;;;;;;;;;;5156440;27;20237;-65
2023/10/01 14:17:33;;;;;;;3.75;3.08;;;;;;;;;;5156827;27;20233;-65
2023/10/01 14:20:08;;;;;;;3.85;3.25;;;;;;;;;;5156157;27;20569;-65
2023/10/01 14:22:49;;;;;;;5.45;3.80;;;;;;;;;;5156567;27;20201;-66
2023/10/01 14:25:20;;;;;;;4.60;3.53;;;;;;;;;;5157544;27;20747;-65
2023/10/01 14:27:47;;;;;;;4.22;3.60;;;;;;;;;;5157207;27;20197;-65
2023/10/01 14:32:58;;;;;;;4.40;3.50;;;;;;;;;;5152395;27;20190;-65
2023/10/01 14:35:37;;;;;;;4.95;3.63;;;;;;;;;;5157323;27;20205;-65
2023/10/01 14:38:06;;;;;;;5.75;4.03;;;;;;;;;;5160089;27;20550;-65
2023/10/01 14:40:34;;;;;;;6.97;3.28;;;;;;;;;;5161072;27;20569;-65
2023/10/01 14:43:03;;;;;;;4.93;3.75;;;;;;;;;;5160922;27;20229;-65
2023/10/01 14:45:34;;;;;;;5.03;3.20;;;;;;;;;;5161458;27;20209;-65
2023/10/01 14:48:06;;;;;;;4.70;3.38;;;;;;;;;;5161810;27;20219;-65
2023/10/01 14:50:40;;;;;;;5.20;3.88;;;;;;;;;;5160353;27;20754;-65
2023/10/01 14:53:12;;;;;;;4.22;3.50;;;;;;;;;;5160436;27;20201;-65
2023/10/01 14:55:43;;;;;;;6.53;3.83;;;;;;;;;;5161167;27;20653;-65
2023/10/01 14:58:13;;;;;;;5.95;3.60;;;;;;;;;;5160715;27;20320;-65
2023/10/01 15:00:52;;;;;;;5.03;3.75;;;;;;;;;;5160777;27;20743;-66
2023/10/01 15:03:23;;;;;;;4.53;3.63;;;;;;;;;;5160817;27;20204;-66
2023/10/01 15:05:52;;;;;;;5.65;3.47;;;;;;;;;;5161247;27;20304;-65
2023/10/01 15:08:20;;;;;;;5.15;3.38;;;;;;;;;;5160811;27;20197;-65
2023/10/01 15:10:51;;;;;;;5.20;3.55;;;;;;;;;;5160913;27;20202;-65
2023/10/01 15:13:21;;;;;;;5.03;3.63;;;;;;;;;;5154740;27;20306;-66
2023/10/01 15:15:49;;;;;;;5.35;3.65;;;;;;;;;;5139935;27;20308;-66
2023/10/01 15:18:19;;;;;;;5.75;3.80;;;;;;;;;;5139729;27;20268;-66
2023/10/01 15:20:54;;;;;;;4.90;3.67;;;;;;;;;;5140566;27;20234;-66
2023/10/01 15:23:23;;;;;;;4.55;3.70;;;;;;;;;;5139586;27;20233;-66
2023/10/01 15:25:50;;;;;;;5.03;3.83;;;;;;;;;;5139347;27;20782;-66
2023/10/01 15:28:18;;;;;;;4.53;3.58;;;;;;;;;;5139993;27;20230;-66
2023/10/01 15:30:46;;;;;;;5.43;3.72;;;;;;;;;;5139665;27;20594;-66
2023/10/01 15:33:17;;;;;;;4.50;3.55;;;;;;;;;;5139944;27;20195;-65
2023/10/01 15:35:49;;;;;;;4.53;3.70;;;;;;;;;;5140239;27;20213;-64
2023/10/01 15:38:33;;;;;;;5.10;4.00;;;;;;;;;;5139478;27;20239;-65
2023/10/01 15:41:02;;;;;;;5.30;3.90;;;;;;;;;;5139295;27;20210;-65
2023/10/01 15:43:29;;;;;;;5.75;4.00;;;;;;;;;;5138931;27;20210;-65
2023/10/01 15:46:11;;;;;;;5.28;3.45;;;;;;;;;;5139601;27;20585;-65
2023/10/01 15:48:48;;;;;;;6.78;3.70;;;;;;;;;;5138692;27;20270;-65
2023/10/01 15:51:25;;;;;;;4.53;3.58;;;;;;;;;;5139924;27;20206;-65
2023/10/01 15:53:54;;;;;;;5.82;4.07;;;;;;;;;;5139431;27;20205;-65
2023/10/01 15:56:30;;;;;;;6.22;3.90;;;;;;;;;;5139092;27;20229;-65
2023/10/01 15:58:58;;;;;;;6.68;4.20;;;;;;;;;;5139606;27;20640;-65
2023/10/01 16:01:27;;;;;;;4.70;3.70;;;;;;;;;;5139053;27;20216;-65
2023/10/01 16:03:54;;;;;;;5.63;3.90;;;;;;;;;;5139142;27;20465;-65
2023/10/01 16:06:26;;;;;;;5.07;3.95;;;;;;;;;;5138989;27;20198;-65
2023/10/01 16:08:58;;;;;;;5.45;4.18;;;;;;;;;;5139417;27;20544;-65